Time;durP1;ratioP1;P1;durP2;ratioP2;P2;SDS_P1;SDS_P2;PMS_P1;PMS_P2;Temp;Humidity;BMP_temperature;BMP_pressure;BME280_temperature;BME280_humidity;BME280_pressure;Samples;Min_cycle;Max_cycle;Signal;HPM_P1;HPM_P2
2021/09/01 00:00:24;;;;;;;15.07;9.67;;;;;;;26.83;42.17;98827.00;5045814;28;20205;-70
2021/09/01 00:02:54;;;;;;;15.10;10.10;;;;;;;27.79;39.46;98827.78;5053785;28;20233;-70
2021/09/01 00:05:22;;;;;;;13.97;9.87;;;;;;;27.03;41.12;98827.66;5040808;28;20190;-70
2021/09/01 00:07:49;;;;;;;16.23;9.80;;;;;;;27.07;41.13;98825.16;5038752;28;20256;-70
2021/09/01 00:10:16;;;;;;;15.53;10.30;;;;;;;26.25;43.26;98825.16;5042366;28;20205;-70
2021/09/01 00:12:44;;;;;;;16.03;10.33;;;;;;;26.99;40.97;98826.59;5051445;28;20210;-70
2021/09/01 00:15:12;;;;;;;16.37;9.70;;;;;;;27.17;40.36;98827.81;5038741;28;20677;-70
2021/09/01 00:17:41;;;;;;;13.50;9.10;;;;;;;27.03;40.45;98843.28;5042649;28;20237;-70
2021/09/01 00:20:10;;;;;;;17.40;10.27;;;;;;;26.58;41.85;98844.44;5048716;28;20317;-71
2021/09/01 00:22:38;;;;;;;13.53;9.87;;;;;;;26.67;41.59;98841.91;5038656;28;20636;-70
2021/09/01 00:25:07;;;;;;;15.53;10.50;;;;;;;26.15;42.15;98833.44;5045058;28;20226;-70
2021/09/01 00:27:34;;;;;;;17.27;10.67;;;;;;;25.66;44.93;98819.63;5046514;28;20228;-70
2021/09/01 00:30:02;;;;;;;17.73;10.27;;;;;;;26.33;42.95;98830.88;5049757;28;20199;-70
2021/09/01 00:32:29;;;;;;;17.13;11.10;;;;;;;25.91;43.54;98830.53;5047114;28;20208;-70
2021/09/01 00:34:58;;;;;;;20.77;12.13;;;;;;;26.09;43.89;98826.34;5053208;28;20202;-70
2021/09/01 00:37:25;;;;;;;15.17;10.23;;;;;;;25.25;45.72;98828.16;5045073;28;20218;-71
2021/09/01 00:39:52;;;;;;;21.57;11.40;;;;;;;25.96;44.22;98826.94;5037748;28;20199;-70
2021/09/01 00:42:20;;;;;;;17.70;11.17;;;;;;;25.53;45.29;98813.94;5046980;28;20229;-70
2021/09/01 00:44:47;;;;;;;19.40;10.93;;;;;;;25.46;45.61;98832.53;5043299;28;20202;-70
2021/09/01 00:47:17;;;;;;;20.77;11.70;;;;;;;26.17;43.40;98831.22;5053217;28;20215;-70
2021/09/01 00:49:44;;;;;;;18.70;11.13;;;;;;;26.33;42.71;98824.56;5046272;28;20254;-70
2021/09/01 00:52:13;;;;;;;17.70;11.27;;;;;;;25.70;43.55;98823.44;5036442;28;20213;-70
2021/09/01 00:54:41;;;;;;;16.07;11.13;;;;;;;25.42;45.03;98820.50;5043402;28;20202;-70
2021/09/01 00:57:09;;;;;;;22.27;11.90;;;;;;;26.08;43.04;98824.69;5041217;28;20219;-70
2021/09/01 00:59:40;;;;;;;15.80;10.67;;;;;;;26.38;42.01;98830.84;5037909;28;20209;-70
2021/09/01 01:02:08;;;;;;;20.60;12.47;;;;;;;26.58;41.29;98838.97;5040256;28;20238;-70
2021/09/01 01:04:36;;;;;;;16.97;10.87;;;;;;;26.53;41.33;98833.50;5041467;28;20201;-70
2021/09/01 01:07:03;;;;;;;17.60;10.93;;;;;;;26.64;40.76;98837.81;5045155;28;20600;-68
2021/09/01 01:09:33;;;;;;;20.73;10.57;;;;;;;25.98;42.65;98831.03;5053075;28;20221;-70
2021/09/01 01:12:03;;;;;;;21.13;12.63;;;;;;;26.36;41.54;98838.50;5044499;28;20223;-69
2021/09/01 01:14:31;;;;;;;17.43;10.70;;;;;;;26.41;41.06;98837.66;5045381;28;20205;-70
2021/09/01 01:16:58;;;;;;;17.27;10.93;;;;;;;25.65;43.09;98837.13;5044537;28;20224;-71
2021/09/01 01:19:25;;;;;;;21.40;11.47;;;;;;;25.25;44.94;98825.41;5044650;28;20194;-70
2021/09/01 01:21:53;;;;;;;18.07;11.47;;;;;;;24.58;47.76;98814.75;5050194;28;20226;-70
2021/09/01 01:24:20;;;;;;;22.87;10.67;;;;;;;25.32;45.80;98826.81;5047704;28;20223;-70
2021/09/01 01:26:49;;;;;;;19.63;11.70;;;;;;;25.18;45.90;98819.44;5050646;28;20245;-70
2021/09/01 01:29:16;;;;;;;18.20;11.47;;;;;;;24.73;47.22;98811.25;5043910;28;20659;-70
2021/09/01 01:31:43;;;;;;;16.27;11.10;;;;;;;25.09;46.28;98812.88;5041228;28;20548;-70
2021/09/01 01:34:15;;;;;;;21.13;11.83;;;;;;;25.45;44.95;98809.84;5045597;28;20335;-70
2021/09/01 01:36:42;;;;;;;24.33;11.83;;;;;;;25.91;43.38;98813.25;5035772;28;20225;-70
2021/09/01 01:39:09;;;;;;;21.77;11.60;;;;;;;26.13;42.75;98819.19;5043364;28;20198;-70
2021/09/01 01:41:36;;;;;;;20.67;12.70;;;;;;;24.88;46.54;98812.06;5043792;28;20211;-70
2021/09/01 01:44:05;;;;;;;19.60;12.27;;;;;;;24.68;46.99;98811.25;5052469;28;20227;-70
2021/09/01 01:46:33;;;;;;;19.20;11.80;;;;;;;25.37;44.96;98820.50;5044248;28;20222;-71
2021/09/01 01:49:00;;;;;;;24.43;12.67;;;;;;;25.52;45.03;98820.47;5044584;28;20229;-70
2021/09/01 01:51:27;;;;;;;19.63;12.37;;;;;;;25.85;43.07;98820.63;5044005;28;20205;-70
2021/09/01 01:53:54;;;;;;;24.23;13.70;;;;;;;25.02;45.97;98818.59;5042930;28;20216;-71
2021/09/01 01:56:22;;;;;;;18.97;12.53;;;;;;;25.47;45.00;98817.75;5047802;28;20229;-71
2021/09/01 01:58:49;;;;;;;22.80;12.10;;;;;;;26.19;42.19;98831.78;5047674;28;20228;-71
2021/09/01 02:01:18;;;;;;;22.20;12.23;;;;;;;26.33;41.81;98822.66;5041166;28;20198;-71
2021/09/01 02:03:45;;;;;;;23.80;13.40;;;;;;;25.19;44.81;98823.81;5051404;28;20226;-71
2021/09/01 02:06:12;;;;;;;24.30;12.67;;;;;;;25.50;43.80;98826.25;5042979;28;20234;-71
2021/09/01 02:08:39;;;;;;;23.63;13.20;;;;;;;25.68;43.48;98822.91;5034681;28;20199;-71
2021/09/01 02:11:07;;;;;;;22.10;13.47;;;;;;;26.00;42.91;98830.75;5043395;28;20209;-71
2021/09/01 02:13:34;;;;;;;23.60;13.63;;;;;;;25.70;43.25;98826.16;5041797;28;20207;-71
2021/09/01 02:16:01;;;;;;;20.83;13.03;;;;;;;25.28;44.49;98822.19;5043555;28;20199;-71
2021/09/01 02:18:30;;;;;;;24.33;13.20;;;;;;;25.70;44.07;98819.88;5040749;28;20661;-71
2021/09/01 02:20:57;;;;;;;21.23;12.73;;;;;;;24.92;46.18;98823.25;5039442;28;20208;-71
2021/09/01 02:23:24;;;;;;;24.50;13.60;;;;;;;25.31;45.27;98827.09;5046941;28;20222;-71
2021/09/01 02:25:52;;;;;;;21.97;12.50;;;;;;;26.28;42.17;98833.63;5046736;28;20198;-71
2021/09/01 02:28:19;;;;;;;23.53;13.40;;;;;;;26.46;41.41;98841.19;5045876;28;20234;-71
2021/09/01 02:30:46;;;;;;;22.00;12.77;;;;;;;25.97;42.47;98834.03;5043160;28;20202;-71
2021/09/01 02:33:14;;;;;;;24.60;12.63;;;;;;;25.79;42.40;98829.16;5045693;28;20195;-71
2021/09/01 02:35:42;;;;;;;22.70;12.23;;;;;;;26.31;41.93;98834.97;5038741;28;20300;-71
2021/09/01 02:38:10;;;;;;;20.43;11.70;;;;;;;25.75;42.52;98833.56;5041608;28;20275;-72
2021/09/01 02:40:37;;;;;;;24.67;13.13;;;;;;;25.65;43.47;98828.13;5038524;28;20224;-70
2021/09/01 02:43:05;;;;;;;22.33;12.00;;;;;;;26.37;41.09;98831.13;5039627;28;20224;-71
2021/09/01 02:45:32;;;;;;;20.73;12.30;;;;;;;26.19;41.16;98839.97;5040226;28;20213;-70
2021/09/01 02:47:59;;;;;;;19.70;12.27;;;;;;;25.03;44.47;98833.91;5046916;28;20225;-70
2021/09/01 02:50:27;;;;;;;19.20;11.53;;;;;;;25.76;42.98;98833.28;5044767;28;20213;-70
2021/09/01 02:52:55;;;;;;;22.73;12.57;;;;;;;26.12;41.40;98844.94;5038206;28;20211;-71
2021/09/01 02:55:23;;;;;;;19.27;11.10;;;;;;;25.89;41.40;98846.34;5042907;28;20208;-70
2021/09/01 02:57:50;;;;;;;20.80;11.30;;;;;;;25.93;41.80;98842.00;5053076;28;20593;-70
2021/09/01 03:00:17;;;;;;;21.83;11.47;;;;;;;26.16;41.21;98835.88;5047659;28;20582;-70
2021/09/01 03:02:45;;;;;;;23.23;11.43;;;;;;;26.22;40.47;98845.72;5036741;28;20226;-70
2021/09/01 03:05:12;;;;;;;19.60;11.10;;;;;;;26.23;40.66;98846.50;5039670;28;20208;-70
2021/09/01 03:07:39;;;;;;;19.87;11.47;;;;;;;26.18;40.65;98838.31;5043100;28;20231;-70
2021/09/01 03:10:09;;;;;;;21.80;12.83;;;;;;;26.23;40.19;98841.03;5060415;22;20578;-66
2021/09/01 03:12:36;;;;;;;20.20;12.00;;;;;;;24.83;43.52;98842.09;5040727;28;20202;-66
2021/09/01 03:15:04;;;;;;;19.53;11.70;;;;;;;25.70;41.90;98839.84;5053562;28;20205;-66
2021/09/01 03:17:31;;;;;;;20.27;11.47;;;;;;;25.77;41.59;98839.56;5053567;28;20215;-66
2021/09/01 03:19:58;;;;;;;18.73;11.37;;;;;;;25.37;42.34;98845.09;5040814;28;20223;-66
2021/09/01 03:22:25;;;;;;;21.07;11.90;;;;;;;25.63;41.76;98841.22;5028321;28;20781;-66
2021/09/01 03:24:53;;;;;;;19.63;11.43;;;;;;;25.38;41.90;98838.56;5032023;28;20206;-66
2021/09/01 03:27:21;;;;;;;23.97;11.93;;;;;;;25.15;42.64;98839.09;5026549;28;20203;-66
2021/09/01 03:29:49;;;;;;;21.43;11.37;;;;;;;25.91;41.19;98837.88;5026566;28;20593;-66
2021/09/01 03:32:16;;;;;;;21.43;12.20;;;;;;;25.55;42.00;98836.34;5028654;28;20205;-66
2021/09/01 03:34:43;;;;;;;19.43;11.33;;;;;;;25.97;40.88;98851.28;5029172;28;20206;-66
2021/09/01 03:37:10;;;;;;;19.27;12.27;;;;;;;25.70;41.27;98848.03;5028631;28;20217;-66
2021/09/01 03:39:38;;;;;;;16.53;11.20;;;;;;;25.68;41.34;98850.25;5029832;28;20226;-66
2021/09/01 03:42:05;;;;;;;21.67;11.73;;;;;;;25.84;40.57;98854.56;5027445;28;20213;-66
2021/09/01 03:44:34;;;;;;;22.97;11.10;;;;;;;25.87;40.55;98845.81;5031368;28;20234;-66
2021/09/01 03:47:01;;;;;;;22.43;11.03;;;;;;;25.98;39.95;98855.66;5029022;28;20206;-66
2021/09/01 03:49:28;;;;;;;21.17;12.30;;;;;;;25.16;42.29;98854.38;5032923;28;20222;-66
2021/09/01 03:51:56;;;;;;;22.87;12.93;;;;;;;25.49;41.24;98848.38;5030442;28;20217;-66
2021/09/01 03:54:23;;;;;;;19.70;12.03;;;;;;;25.35;42.18;98856.34;5029173;28;20562;-66
2021/09/01 03:56:50;;;;;;;19.63;12.50;;;;;;;24.52;43.97;98848.56;5030657;28;20214;-66
2021/09/01 03:59:17;;;;;;;25.03;12.70;;;;;;;24.87;43.72;98861.50;5030990;28;20218;-66
2021/09/01 04:01:46;;;;;;;21.77;12.93;;;;;;;24.88;43.14;98860.41;5027664;28;20217;-66
2021/09/01 04:04:13;;;;;;;21.80;12.00;;;;;;;25.46;41.65;98862.59;5030054;28;20230;-66
2021/09/01 04:06:41;;;;;;;24.50;13.87;;;;;;;25.20;42.10;98859.06;5029494;28;20215;-66
2021/09/01 04:09:08;;;;;;;24.93;12.63;;;;;;;25.09;42.36;98862.84;5030289;28;20236;-66
2021/09/01 04:11:35;;;;;;;23.07;13.40;;;;;;;24.61;43.28;98866.09;5029187;28;20221;-66
2021/09/01 04:14:02;;;;;;;20.77;13.80;;;;;;;24.39;44.78;98859.19;5025935;28;20680;-66
2021/09/01 04:16:30;;;;;;;27.60;13.10;;;;;;;25.14;42.02;98867.50;5020580;28;20613;-66
2021/09/01 04:18:58;;;;;;;24.30;12.97;;;;;;;25.08;42.74;98863.16;5028097;28;20217;-66
2021/09/01 04:21:26;;;;;;;24.20;13.17;;;;;;;25.36;41.93;98876.28;5024752;28;20210;-66
2021/09/01 04:23:53;;;;;;;24.27;13.50;;;;;;;25.50;40.90;98871.88;5024680;28;20218;-66
2021/09/01 04:26:20;;;;;;;21.67;12.40;;;;;;;25.38;40.88;98874.09;5026510;28;20206;-66
2021/09/01 04:28:47;;;;;;;24.00;13.53;;;;;;;24.76;43.01;98868.03;5031765;28;20206;-66
2021/09/01 04:31:15;;;;;;;20.70;13.53;;;;;;;24.41;44.31;98863.28;5030255;28;20551;-66
2021/09/01 04:33:42;;;;;;;22.10;12.93;;;;;;;24.68;43.71;98869.38;5026781;28;20213;-66
2021/09/01 04:36:11;;;;;;;23.83;13.03;;;;;;;25.03;42.84;98872.16;5031449;28;20216;-66
2021/09/01 04:38:38;;;;;;;23.60;12.90;;;;;;;25.24;42.40;98876.50;5035963;28;20214;-66
2021/09/01 04:41:05;;;;;;;22.13;12.60;;;;;;;25.50;41.33;98871.88;5024410;28;20237;-66
2021/09/01 04:43:32;;;;;;;24.97;13.40;;;;;;;25.63;40.60;98879.50;5025693;28;20237;-66
2021/09/01 04:46:00;;;;;;;26.67;14.33;;;;;;;25.69;40.33;98871.03;5029890;28;20205;-66
2021/09/01 04:48:27;;;;;;;20.27;12.73;;;;;;;25.70;40.24;98877.31;5026904;28;20210;-66
2021/09/01 04:50:54;;;;;;;17.80;11.57;;;;;;;25.61;40.14;98881.72;5029649;28;20240;-66
2021/09/01 04:53:23;;;;;;;24.37;13.30;;;;;;;25.74;39.83;98881.94;5031209;28;20202;-66
2021/09/01 04:55:50;;;;;;;20.17;12.60;;;;;;;25.78;39.50;98890.41;5029663;28;20690;-66
2021/09/01 04:58:18;;;;;;;21.43;12.03;;;;;;;25.84;39.34;98881.91;5030345;28;20206;-67
2021/09/01 05:00:45;;;;;;;21.57;12.57;;;;;;;25.23;40.75;98882.28;5028510;28;20693;-67
2021/09/01 05:03:12;;;;;;;22.37;13.07;;;;;;;24.48;43.03;98879.41;5032105;28;20575;-66
2021/09/01 05:05:39;;;;;;;24.13;13.43;;;;;;;24.69;42.99;98876.50;5027129;28;20698;-67
2021/09/01 05:08:07;;;;;;;20.57;12.10;;;;;;;25.07;42.69;98877.88;5029829;28;20661;-66
2021/09/01 05:10:35;;;;;;;18.90;12.17;;;;;;;25.53;41.45;98879.56;5029952;28;20623;-66
2021/09/01 05:13:03;;;;;;;25.27;12.80;;;;;;;25.68;40.87;98891.25;5025080;28;20241;-67
2021/09/01 05:15:30;;;;;;;21.37;11.67;;;;;;;25.77;40.87;98886.03;5025677;28;20206;-67
2021/09/01 05:17:57;;;;;;;20.57;12.73;;;;;;;25.78;40.88;98890.41;5032639;28;20210;-67
2021/09/01 05:20:25;;;;;;;20.43;12.97;;;;;;;25.13;42.98;98890.47;5026893;28;20239;-67
2021/09/01 05:22:59;;;;;;;26.17;14.03;;;;;;;24.16;46.38;98892.38;5027870;28;20201;-67
2021/09/01 05:25:30;;;;;;;26.27;13.67;;;;;;;24.82;44.67;98886.06;5030131;28;20229;-67
2021/09/01 05:27:59;;;;;;;29.87;14.47;;;;;;;24.40;47.02;98882.66;5028354;28;20681;-67
2021/09/01 05:30:27;;;;;;;28.60;14.90;;;;;;;24.40;47.43;98888.09;5031776;28;20554;-67
2021/09/01 05:32:56;;;;;;;22.93;14.87;;;;;;;24.74;46.83;98890.16;5032658;28;20669;-67
2021/09/01 05:35:23;;;;;;;28.63;16.53;;;;;;;24.45;47.33;98888.13;5031870;28;20210;-67
2021/09/01 05:37:50;;;;;;;26.80;15.83;;;;;;;24.32;49.40;98877.72;5029836;28;20209;-68
2021/09/01 05:40:18;;;;;;;30.73;15.50;;;;;;;23.84;50.50;98886.19;5027217;28;20476;-72
2021/09/01 05:42:45;;;;;;;50.43;16.93;;;;;;;24.22;50.53;98880.41;5031778;28;20575;-72
2021/09/01 05:45:13;;;;;;;56.37;17.13;;;;;;;22.63;56.82;98887.13;5032269;28;20204;-68
2021/09/01 05:47:41;;;;;;;68.87;18.40;;;;;;;23.39;54.87;98883.19;5032377;28;20664;-67
2021/09/01 05:50:08;;;;;;;388.10;27.40;;;;;;;22.52;57.26;98888.09;5031382;28;20226;-67
2021/09/01 05:52:36;;;;;;;205.00;21.80;;;;;;;21.77;61.26;98884.41;5021554;28;20210;-67
2021/09/01 05:55:09;;;;;;;112.73;17.63;;;;;;;22.68;59.59;98884.44;5036186;28;20199;-68
2021/09/01 05:57:37;;;;;;;394.70;29.20;;;;;;;22.41;62.09;98889.03;5031031;28;20235;-68
2021/09/01 06:00:11;;;;;;;73.73;18.97;;;;;;;22.36;59.87;98890.88;5030206;28;20226;-67
2021/09/01 06:02:46;;;;;;;94.43;18.40;;;;;;;22.46;58.72;98894.56;5031709;28;20221;-67
2021/09/01 06:05:14;;;;;;;135.23;20.50;;;;;;;23.05;59.25;98901.66;5024722;28;20698;-67
2021/09/01 06:07:48;;;;;;;124.00;21.43;;;;;;;23.78;55.85;98898.16;5029645;28;20220;-67
2021/09/01 06:10:18;;;;;;;55.43;17.40;;;;;;;23.75;55.01;98898.69;5025498;28;20226;-67
2021/09/01 06:12:47;;;;;;;39.90;18.30;;;;;;;24.02;54.77;98900.22;5031633;28;20210;-67
2021/09/01 06:15:15;;;;;;;42.20;18.90;;;;;;;24.90;51.23;98905.47;5031280;28;20206;-67
2021/09/01 06:17:43;;;;;;;68.73;18.53;;;;;;;24.14;53.86;98900.84;5030292;28;20284;-67
2021/09/01 06:20:12;;;;;;;34.57;16.80;;;;;;;24.49;52.27;98905.59;5024016;28;20246;-66
2021/09/01 06:22:39;;;;;;;51.87;18.53;;;;;;;25.31;49.89;98906.34;5030081;28;20595;-68
2021/09/01 06:25:08;;;;;;;63.93;18.27;;;;;;;24.55;53.26;98899.91;5031971;28;20229;-67
2021/09/01 06:27:35;;;;;;;33.07;17.23;;;;;;;24.69;52.21;98906.53;5032651;28;20288;-72
2021/09/01 06:30:03;;;;;;;31.93;16.90;;;;;;;24.15;53.93;98910.66;5029599;28;20584;-68
2021/09/01 06:32:31;;;;;;;63.30;18.67;;;;;;;23.33;57.92;98892.41;5030603;28;20206;-69
2021/09/01 06:34:59;;;;;;;46.57;18.23;;;;;;;22.48;63.67;98903.28;5031275;28;20205;-68
2021/09/01 06:37:27;;;;;;;115.80;20.77;;;;;;;22.43;65.00;98900.47;5029694;28;20213;-70
2021/09/01 06:39:54;;;;;;;69.77;20.30;;;;;;;24.00;56.68;98907.03;5020294;28;20230;-69
2021/09/01 06:42:22;;;;;;;77.93;20.27;;;;;;;25.41;51.90;98911.78;5031876;28;20214;-69
2021/09/01 06:44:49;;;;;;;33.20;19.30;;;;;;;24.04;55.54;98910.88;5030532;28;20222;-71
2021/09/01 06:47:16;;;;;;;168.53;23.53;;;;;;;23.31;59.10;98913.66;5032908;28;20700;-67
2021/09/01 06:49:55;;;;;;;71.07;19.30;;;;;;;25.08;53.04;98923.25;5027339;28;20226;-67
2021/09/01 06:52:23;;;;;;;62.77;21.63;;;;;;;23.02;60.23;98915.00;5023850;28;20209;-67
2021/09/01 06:54:51;;;;;;;40.73;20.67;;;;;;;24.18;54.57;98915.56;5030339;28;20204;-67
2021/09/01 06:57:18;;;;;;;38.60;20.30;;;;;;;23.52;60.20;98913.50;5027231;28;20205;-67
2021/09/01 06:59:45;;;;;;;37.57;20.57;;;;;;;22.92;63.01;98920.34;5021973;28;20233;-67
2021/09/01 07:02:12;;;;;;;32.77;19.13;;;;;;;24.20;56.83;98920.78;5031308;28;20213;-67
2021/09/01 07:04:40;;;;;;;32.93;19.43;;;;;;;23.38;61.51;98911.50;5030897;28;20227;-67
2021/09/01 07:07:07;;;;;;;37.80;20.83;;;;;;;25.47;51.61;98925.19;5030214;28;20220;-68
2021/09/01 07:09:35;;;;;;;32.50;19.73;;;;;;;24.16;57.05;98923.22;5031665;28;20238;-67
2021/09/01 07:12:03;;;;;;;31.47;19.40;;;;;;;24.70;53.43;98926.44;5031672;28;20203;-66
2021/09/01 07:14:30;;;;;;;36.23;20.37;;;;;;;24.22;57.08;98926.81;5030130;28;20225;-67
2021/09/01 07:16:58;;;;;;;33.57;19.53;;;;;;;24.04;57.34;98929.97;5031079;28;20199;-66
2021/09/01 07:19:25;;;;;;;30.70;18.67;;;;;;;25.94;49.11;98936.63;5030993;28;20230;-67
2021/09/01 07:21:52;;;;;;;31.50;18.90;;;;;;;25.86;47.60;98955.50;5031186;28;20203;-67
2021/09/01 07:24:19;;;;;;;31.20;18.67;;;;;;;24.94;53.59;98928.41;5031339;28;20230;-67
2021/09/01 07:26:48;;;;;;;28.53;17.13;;;;;;;26.15;49.17;98937.41;5030352;28;20210;-67
2021/09/01 07:29:15;;;;;;;30.67;18.17;;;;;;;25.20;50.96;98934.72;5030232;28;20226;-67
2021/09/01 07:31:43;;;;;;;28.83;17.77;;;;;;;24.68;55.37;98926.72;5030492;28;20204;-67
2021/09/01 07:34:10;;;;;;;24.87;17.07;;;;;;;25.46;51.26;98928.19;5034004;28;20206;-67
2021/09/01 07:36:37;;;;;;;30.43;17.20;;;;;;;27.00;47.41;98940.59;5034799;28;20211;-67
2021/09/01 07:39:05;;;;;;;22.50;16.47;;;;;;;23.97;55.52;98930.19;5032557;28;20588;-67
2021/09/01 07:41:33;;;;;;;22.80;15.43;;;;;;;26.12;48.79;98940.69;5032286;28;20589;-71
2021/09/01 07:44:01;;;;;;;26.17;16.73;;;;;;;23.91;57.21;98930.47;5032223;28;20764;-71
2021/09/01 07:46:29;;;;;;;26.73;16.60;;;;;;;24.21;56.80;98941.50;5036292;28;20213;-71
2021/09/01 07:49:00;;;;;;;24.30;15.20;;;;;;;26.24;48.89;98954.91;5033822;28;20640;-71
2021/09/01 07:51:27;;;;;;;23.40;15.50;;;;;;;27.08;45.54;98958.34;5035132;28;20574;-71
2021/09/01 07:53:54;;;;;;;24.20;16.33;;;;;;;25.11;53.41;98950.84;5033845;28;20611;-74
2021/09/01 07:56:22;;;;;;;24.63;15.30;;;;;;;27.12;45.62;98973.94;5032241;28;20203;-76
2021/09/01 07:58:49;;;;;;;26.50;14.87;;;;;;;26.28;47.87;98965.00;5030973;28;20238;-73
2021/09/01 08:01:18;;;;;;;25.57;15.50;;;;;;;26.05;50.16;98964.81;5034183;28;20581;-74
2021/09/01 08:03:45;;;;;;;24.17;15.97;;;;;;;25.68;49.23;98975.19;5034398;28;20214;-72
2021/09/01 08:06:12;;;;;;;25.37;16.07;;;;;;;26.30;48.99;98971.00;5041793;28;20659;-77
2021/09/01 08:08:39;;;;;;;28.43;16.23;;;;;;;27.32;45.18;98982.03;5037371;28;20661;-73
2021/09/01 08:11:07;;;;;;;28.30;15.70;;;;;;;26.86;45.22;98985.34;5036481;28;20215;-75
2021/09/01 08:13:34;;;;;;;23.20;14.83;;;;;;;26.76;44.82;98988.13;5034461;28;20200;-75
2021/09/01 08:16:01;;;;;;;20.30;14.23;;;;;;;27.62;43.69;98990.03;5035184;28;20211;-73
2021/09/01 08:18:30;;;;;;;23.83;14.93;;;;;;;25.97;47.65;98968.94;5036282;28;20205;-72
2021/09/01 08:20:57;;;;;;;19.93;13.47;;;;;;;26.03;48.72;98975.19;5034578;28;20228;-71
2021/09/01 08:23:24;;;;;;;21.27;11.73;;;;;;;27.74;43.02;98985.03;5034931;28;20211;-71
2021/09/01 08:25:52;;;;;;;17.43;12.97;;;;;;;26.83;46.66;98984.00;5036309;28;20231;-72
2021/09/01 08:28:19;;;;;;;16.70;11.67;;;;;;;27.58;43.38;98988.19;5033313;28;20685;-71
2021/09/01 08:30:46;;;;;;;20.57;13.80;;;;;;;27.11;43.25;98996.16;5033614;28;20583;-71
2021/09/01 08:33:13;;;;;;;18.13;12.53;;;;;;;25.45;48.84;98979.34;5033044;28;20292;-72
2021/09/01 08:35:42;;;;;;;18.60;12.60;;;;;;;26.35;48.28;98978.41;5025268;28;20204;-72
2021/09/01 08:38:09;;;;;;;17.60;12.40;;;;;;;26.39;48.08;98980.31;5034048;28;20218;-71
2021/09/01 08:40:37;;;;;;;20.07;12.07;;;;;;;27.31;45.01;98987.84;5033374;28;20228;-72
2021/09/01 08:43:05;;;;;;;18.67;12.83;;;;;;;27.24;44.44;98993.63;5031410;28;20280;-72
2021/09/01 08:45:32;;;;;;;17.03;12.07;;;;;;;27.17;45.65;98990.38;5032163;28;20224;-72
2021/09/01 08:47:59;;;;;;;15.67;11.40;;;;;;;27.10;46.22;98981.63;5033328;28;20225;-72
2021/09/01 08:50:28;;;;;;;16.00;11.30;;;;;;;27.33;44.57;98997.41;5032237;28;20223;-71
2021/09/01 08:52:57;;;;;;;18.77;11.17;;;;;;;27.82;43.51;98998.13;5032732;28;20687;-71
2021/09/01 08:55:25;;;;;;;17.30;11.40;;;;;;;26.22;46.98;98990.75;5031319;28;20570;-72
2021/09/01 08:57:52;;;;;;;15.60;11.57;;;;;;;27.16;45.28;98993.38;5032904;28;20201;-71
2021/09/01 09:00:19;;;;;;;16.23;10.90;;;;;;;27.81;42.86;98998.41;5034975;28;20221;-71
2021/09/01 09:02:54;;;;;;;15.53;10.93;;;;;;;26.99;45.50;98995.66;5034638;28;20206;-71
2021/09/01 09:05:31;;;;;;;15.03;10.23;;;;;;;26.68;45.77;98992.28;5028013;28;20229;-71
2021/09/01 09:07:59;;;;;;;14.57;10.33;;;;;;;28.55;40.88;98998.78;5032794;28;20603;-71
2021/09/01 09:10:28;;;;;;;13.67;10.10;;;;;;;26.46;46.60;98980.81;5031038;28;20234;-72
2021/09/01 09:13:00;;;;;;;13.70;8.37;;;;;;;28.73;39.94;98984.28;5032222;28;20677;-71
2021/09/01 09:15:28;;;;;;;12.13;8.90;;;;;;;29.89;37.97;98993.25;5030080;28;20268;-72
2021/09/01 09:17:55;;;;;;;13.43;8.83;;;;;;;28.09;42.99;98975.66;5033075;28;20206;-72
2021/09/01 09:20:28;;;;;;;12.87;8.53;;;;;;;29.72;38.70;98972.94;5032829;28;20233;-71
2021/09/01 09:22:56;;;;;;;12.03;7.90;;;;;;;29.38;38.09;98984.19;5040132;28;20206;-72
2021/09/01 09:25:27;;;;;;;11.30;7.33;;;;;;;28.09;42.44;98972.91;5031737;28;20245;-71
2021/09/01 09:27:57;;;;;;;9.37;7.00;;;;;;;28.90;41.39;98979.09;5035249;28;20210;-71
2021/09/01 09:30:26;;;;;;;9.47;7.40;;;;;;;29.72;38.11;98986.69;5032941;28;20579;-72
2021/09/01 09:32:56;;;;;;;12.37;7.40;;;;;;;26.85;44.29;98976.28;5031774;28;20202;-71
2021/09/01 09:35:24;;;;;;;9.83;7.50;;;;;;;30.00;38.08;98985.66;5032336;28;20198;-72
2021/09/01 09:38:02;;;;;;;10.83;7.37;;;;;;;29.43;38.80;98975.84;5032334;28;20206;-72
2021/09/01 09:40:31;;;;;;;9.80;7.07;;;;;;;28.67;39.52;98979.94;5039033;28;20313;-72
2021/09/01 09:43:12;;;;;;;9.17;7.10;;;;;;;30.40;37.35;98971.94;5032355;28;20199;-72
2021/09/01 09:45:39;;;;;;;12.27;7.10;;;;;;;30.01;36.41;98982.56;5028820;28;20323;-71
2021/09/01 09:48:07;;;;;;;10.77;6.30;;;;;;;28.61;38.07;98978.38;5025083;28;20207;-71
2021/09/01 09:50:34;;;;;;;5.40;4.50;;;;;;;29.71;34.98;98987.81;5037744;28;20230;-72
2021/09/01 09:53:02;;;;;;;11.37;5.17;;;;;;;30.74;34.83;98991.69;5035424;28;20202;-73
2021/09/01 09:55:32;;;;;;;7.73;5.20;;;;;;;30.51;34.24;99006.44;5031336;28;20198;-71
2021/09/01 09:58:01;;;;;;;4.77;4.20;;;;;;;30.65;33.14;98992.69;5038066;28;20206;-72
2021/09/01 10:00:29;;;;;;;6.07;4.17;;;;;;;30.46;33.02;98994.72;5029768;28;20276;-72
2021/09/01 10:02:56;;;;;;;7.57;4.53;;;;;;;30.22;34.01;98994.09;5032358;28;20198;-72
2021/09/01 10:05:27;;;;;;;7.00;4.90;;;;;;;29.74;34.48;98989.97;5032035;28;20219;-71
2021/09/01 10:07:58;;;;;;;6.63;3.93;;;;;;;29.42;33.87;98990.72;5031123;28;20222;-73
2021/09/01 10:10:25;;;;;;;7.53;4.27;;;;;;;28.78;33.99;98993.25;5035889;28;20249;-72
2021/09/01 10:12:54;;;;;;;4.40;3.53;;;;;;;30.08;32.94;98988.53;5030850;28;20206;-72
2021/09/01 10:15:24;;;;;;;4.90;4.13;;;;;;;29.18;33.08;98994.69;5029051;28;20198;-72
2021/09/01 10:17:56;;;;;;;7.10;4.37;;;;;;;28.66;34.71;98975.56;5031814;28;20194;-72
2021/09/01 10:20:24;;;;;;;4.30;3.60;;;;;;;29.18;33.72;98979.00;5032019;28;20214;-72
2021/09/01 10:23:01;;;;;;;5.70;3.87;;;;;;;29.42;33.11;98976.97;5031340;28;20203;-72
2021/09/01 10:25:37;;;;;;;4.83;3.00;;;;;;;30.97;30.09;98998.09;5028940;28;20590;-72
2021/09/01 10:28:34;;;;;;;5.50;4.00;;;;;;;31.82;29.99;98985.09;5025967;28;20198;-72
2021/09/01 10:31:19;;;;;;;7.20;3.93;;;;;;;30.66;31.92;98970.34;5021743;28;20692;-72
2021/09/01 10:33:51;;;;;;;4.73;3.27;;;;;;;30.01;29.61;98984.53;5024714;28;20726;-72
2021/09/01 10:36:46;;;;;;;4.97;3.40;;;;;;;28.45;32.40;98974.19;5025756;28;20236;-71
2021/09/01 10:39:38;;;;;;;4.93;3.93;;;;;;;28.79;32.04;98974.84;5031753;28;20218;-72
2021/09/01 10:42:37;;;;;;;5.63;3.90;;;;;;;31.10;28.55;98991.72;5027285;28;20572;-73
2021/09/01 10:45:09;;;;;;;4.03;3.17;;;;;;;30.08;28.47;98993.19;5029886;28;20249;-72
2021/09/01 10:48:04;;;;;;;5.40;3.70;;;;;;;31.97;27.59;98998.50;5033301;28;20225;-75
2021/09/01 10:50:33;;;;;;;5.97;3.63;;;;;;;29.72;30.47;99001.28;5030229;28;20231;-72
2021/09/01 10:53:04;;;;;;;5.27;3.97;;;;;;;30.18;30.58;98982.88;5030863;28;20198;-70
2021/09/01 10:55:32;;;;;;;5.93;4.30;;;;;;;30.68;30.93;98975.53;5028822;28;20207;-73
2021/09/01 10:58:18;;;;;;;7.00;4.10;;;;;;;30.15;30.25;98982.66;5031269;28;20214;-71
2021/09/01 11:00:53;;;;;;;5.33;4.10;;;;;;;30.24;31.23;98976.13;5022297;28;20224;-71
2021/09/01 11:03:32;;;;;;;7.97;3.97;;;;;;;30.79;30.31;98975.03;5030749;28;20215;-72
2021/09/01 11:06:22;;;;;;;5.10;3.80;;;;;;;30.67;30.27;98973.91;5029445;28;20227;-72
2021/09/01 11:09:07;;;;;;;4.73;3.70;;;;;;;29.52;31.56;98965.81;5031622;28;20211;-72
2021/09/01 11:11:53;;;;;;;5.37;4.10;;;;;;;30.54;31.08;98963.69;5034365;28;20213;-73
2021/09/01 11:14:36;;;;;;;6.53;3.80;;;;;;;31.68;28.76;98976.81;5035168;28;20206;-72
2021/09/01 11:17:06;;;;;;;6.30;3.57;;;;;;;31.90;28.30;98976.84;5023859;28;20213;-73
2021/09/01 11:19:34;;;;;;;5.70;3.87;;;;;;;31.27;28.97;98976.16;5032081;28;20228;-73
2021/09/01 11:22:06;;;;;;;6.47;3.93;;;;;;;30.25;30.55;98969.50;5028544;28;20201;-73
2021/09/01 11:24:47;;;;;;;7.07;4.10;;;;;;;29.35;32.48;98971.00;5030813;28;20292;-75
2021/09/01 11:27:15;;;;;;;6.47;4.50;;;;;;;30.76;30.72;98972.09;5039273;28;20220;-74